Davenport, Washington
Current Conditions -  °F | °C
As of 7:58 PM on Sunday 23 Nov 2014 (Local Time) from KSKA Reporting Station
Clear Clear  
Wind Chill: 23°   Ceiling: Unl
Heat Index: 33°   Visibility: 10mi
Dew Point: 29°   Wind: 14mph
Humidity: 85%   Direction: 240°WSW
Pressure: 30.06"   Gusts: NA
Location:  47.65°N, 118.15°W
Report Text: KSKA 240358Z AUTO 24012KT 10SM CLR 01/M02 A3006 RMK AO2 SLPNO T00061016 RVRNO $
Loading
Personal Weather Stations






























Interactive Weather Map New forecast layout! Learn more

10-Day Weather Forecast

Advertisements
Track Severe Weather on mobile